Terminal Aerodrome Forecast
Issued by NWS

Home | Current Version | Previous Version | Text Only | Print | Product List | Glossary Off
Versions: 1 2 3 4 5 6 7 8 9 10 11 12 13 14 15 16 17 18 19 20

000
FTUS43 KICT 181512 AAA
TAFRSL
TAF AMD
KRSL 181512Z 1815/1912 03005KT 5SM BR OVC006
      TEMPO 1815/1818 3SM BR OVC003
     FM182200 VRB05KT P6SM SCT050 BKN250=

USA.gov is the U.S. government's official web portal to all federal, state and local government web resources and services.